sensor_id;sensor_type;location;lat;lon;timestamp;P1;durP1;ratioP1;P2;durP2;ratioP2
75218;SDS011;63801;49.414;19.474;2022-11-15T00:01:31;453.67;;;106.60;;
75218;SDS011;63801;49.414;19.474;2022-11-15T00:03:31;248.52;;;86.00;;
75218;SDS011;63801;49.414;19.474;2022-11-15T00:05:34;284.08;;;88.10;;
75218;SDS011;63801;49.414;19.474;2022-11-15T00:07:35;449.27;;;104.22;;
75218;SDS011;63801;49.414;19.474;2022-11-15T00:09:36;362.08;;;93.00;;
75218;SDS011;63801;49.414;19.474;2022-11-15T00:11:36;442.17;;;103.72;;
75218;SDS011;63801;49.414;19.474;2022-11-15T00:13:36;290.13;;;83.72;;
75218;SDS011;63801;49.414;19.474;2022-11-15T00:15:37;335.70;;;91.03;;
75218;SDS011;63801;49.414;19.474;2022-11-15T00:17:39;327.55;;;86.28;;
75218;SDS011;63801;49.414;19.474;2022-11-15T00:19:39;502.15;;;101.50;;
75218;SDS011;63801;49.414;19.474;2022-11-15T00:21:39;436.60;;;98.53;;
75218;SDS011;63801;49.414;19.474;2022-11-15T00:23:40;326.48;;;90.38;;
75218;SDS011;63801;49.414;19.474;2022-11-15T00:25:40;330.67;;;92.65;;
75218;SDS011;63801;49.414;19.474;2022-11-15T00:27:40;354.13;;;90.53;;
75218;SDS011;63801;49.414;19.474;2022-11-15T00:29:41;339.75;;;89.20;;
75218;SDS011;63801;49.414;19.474;2022-11-15T00:31:43;401.70;;;101.57;;
75218;SDS011;63801;49.414;19.474;2022-11-15T00:33:43;443.13;;;109.32;;
75218;SDS011;63801;49.414;19.474;2022-11-15T00:35:44;361.42;;;94.60;;
75218;SDS011;63801;49.414;19.474;2022-11-15T00:37:45;449.35;;;93.53;;
75218;SDS011;63801;49.414;19.474;2022-11-15T00:39:47;386.30;;;88.97;;
75218;SDS011;63801;49.414;19.474;2022-11-15T00:41:47;390.85;;;89.20;;
75218;SDS011;63801;49.414;19.474;2022-11-15T00:43:47;484.90;;;92.70;;
75218;SDS011;63801;49.414;19.474;2022-11-15T00:45:48;289.58;;;79.40;;
75218;SDS011;63801;49.414;19.474;2022-11-15T00:47:48;302.05;;;78.85;;
75218;SDS011;63801;49.414;19.474;2022-11-15T00:49:48;420.25;;;80.55;;
75218;SDS011;63801;49.414;19.474;2022-11-15T00:51:48;281.67;;;68.90;;
75218;SDS011;63801;49.414;19.474;2022-11-15T00:53:49;449.17;;;86.78;;
75218;SDS011;63801;49.414;19.474;2022-11-15T00:55:49;255.30;;;72.95;;
75218;SDS011;63801;49.414;19.474;2022-11-15T00:57:49;367.02;;;82.13;;
75218;SDS011;63801;49.414;19.474;2022-11-15T00:59:50;357.98;;;81.03;;
75218;SDS011;63801;49.414;19.474;2022-11-15T01:01:50;436.35;;;83.57;;
75218;SDS011;63801;49.414;19.474;2022-11-15T01:03:50;435.30;;;82.43;;
75218;SDS011;63801;49.414;19.474;2022-11-15T01:05:51;407.77;;;76.35;;
75218;SDS011;63801;49.414;19.474;2022-11-15T01:07:54;370.10;;;76.50;;
75218;SDS011;63801;49.414;19.474;2022-11-15T01:09:55;327.90;;;77.07;;
75218;SDS011;63801;49.414;19.474;2022-11-15T01:11:56;389.63;;;79.53;;
75218;SDS011;63801;49.414;19.474;2022-11-15T01:13:56;332.60;;;71.97;;
75218;SDS011;63801;49.414;19.474;2022-11-15T01:15:56;381.55;;;73.82;;
75218;SDS011;63801;49.414;19.474;2022-11-15T01:17:57;254.07;;;65.47;;
75218;SDS011;63801;49.414;19.474;2022-11-15T01:19:57;294.95;;;65.88;;
75218;SDS011;63801;49.414;19.474;2022-11-15T01:21:57;388.30;;;74.43;;
75218;SDS011;63801;49.414;19.474;2022-11-15T01:23:57;613.08;;;90.18;;
75218;SDS011;63801;49.414;19.474;2022-11-15T01:25:59;293.45;;;69.72;;
75218;SDS011;63801;49.414;19.474;2022-11-15T01:28:03;277.60;;;72.80;;
75218;SDS011;63801;49.414;19.474;2022-11-15T01:30:03;209.50;;;64.82;;
75218;SDS011;63801;49.414;19.474;2022-11-15T01:32:04;294.73;;;69.35;;
75218;SDS011;63801;49.414;19.474;2022-11-15T01:34:05;233.18;;;69.93;;
75218;SDS011;63801;49.414;19.474;2022-11-15T01:36:06;320.30;;;74.68;;
75218;SDS011;63801;49.414;19.474;2022-11-15T01:38:07;194.02;;;65.43;;
75218;SDS011;63801;49.414;19.474;2022-11-15T01:40:08;164.40;;;55.85;;
75218;SDS011;63801;49.414;19.474;2022-11-15T01:42:14;148.90;;;51.90;;
75218;SDS011;63801;49.414;19.474;2022-11-15T01:46:33;167.98;;;51.83;;
75218;SDS011;63801;49.414;19.474;2022-11-15T01:48:35;196.00;;;59.00;;
75218;SDS011;63801;49.414;19.474;2022-11-15T01:50:36;184.82;;;58.28;;
75218;SDS011;63801;49.414;19.474;2022-11-15T01:52:36;163.55;;;56.72;;
75218;SDS011;63801;49.414;19.474;2022-11-15T01:54:38;194.00;;;72.97;;
75218;SDS011;63801;49.414;19.474;2022-11-15T01:56:41;764.80;;;345.73;;
75218;SDS011;63801;49.414;19.474;2022-11-15T01:58:45;697.05;;;339.65;;
75218;SDS011;63801;49.414;19.474;2022-11-15T02:00:46;227.43;;;94.18;;
75218;SDS011;63801;49.414;19.474;2022-11-15T02:02:47;164.52;;;68.68;;
75218;SDS011;63801;49.414;19.474;2022-11-15T02:04:48;132.52;;;56.95;;
75218;SDS011;63801;49.414;19.474;2022-11-15T02:06:48;151.70;;;65.78;;
75218;SDS011;63801;49.414;19.474;2022-11-15T02:08:49;127.97;;;55.40;;
75218;SDS011;63801;49.414;19.474;2022-11-15T02:10:50;114.82;;;45.03;;
75218;SDS011;63801;49.414;19.474;2022-11-15T02:12:50;102.95;;;41.00;;
75218;SDS011;63801;49.414;19.474;2022-11-15T02:14:52;132.77;;;53.13;;
75218;SDS011;63801;49.414;19.474;2022-11-15T02:21:33;113.90;;;44.38;;
75218;SDS011;63801;49.414;19.474;2022-11-15T02:28:21;139.98;;;52.15;;
75218;SDS011;63801;49.414;19.474;2022-11-15T02:30:54;182.07;;;66.32;;
75218;SDS011;63801;49.414;19.474;2022-11-15T02:33:08;182.68;;;70.25;;
75218;SDS011;63801;49.414;19.474;2022-11-15T02:37:47;146.57;;;54.63;;
75218;SDS011;63801;49.414;19.474;2022-11-15T02:42:11;83.57;;;34.92;;
75218;SDS011;63801;49.414;19.474;2022-11-15T02:44:35;101.53;;;37.47;;
75218;SDS011;63801;49.414;19.474;2022-11-15T02:46:40;100.28;;;36.88;;
75218;SDS011;63801;49.414;19.474;2022-11-15T02:49:07;108.07;;;40.92;;
75218;SDS011;63801;49.414;19.474;2022-11-15T02:51:07;110.80;;;41.28;;
75218;SDS011;63801;49.414;19.474;2022-11-15T02:53:09;130.07;;;46.47;;
75218;SDS011;63801;49.414;19.474;2022-11-15T02:55:29;125.47;;;48.25;;
75218;SDS011;63801;49.414;19.474;2022-11-15T02:59:51;153.35;;;52.55;;
75218;SDS011;63801;49.414;19.474;2022-11-15T03:09:34;152.20;;;54.35;;
75218;SDS011;63801;49.414;19.474;2022-11-15T03:11:41;125.32;;;45.80;;
75218;SDS011;63801;49.414;19.474;2022-11-15T03:16:11;175.68;;;58.47;;
75218;SDS011;63801;49.414;19.474;2022-11-15T03:18:27;205.70;;;62.95;;
75218;SDS011;63801;49.414;19.474;2022-11-15T03:20:33;126.28;;;47.33;;
75218;SDS011;63801;49.414;19.474;2022-11-15T03:22:36;126.43;;;47.33;;
75218;SDS011;63801;49.414;19.474;2022-11-15T03:24:40;110.47;;;45.08;;
75218;SDS011;63801;49.414;19.474;2022-11-15T03:26:43;97.60;;;39.35;;
75218;SDS011;63801;49.414;19.474;2022-11-15T03:28:47;99.70;;;38.70;;
75218;SDS011;63801;49.414;19.474;2022-11-15T03:30:49;106.80;;;38.35;;
75218;SDS011;63801;49.414;19.474;2022-11-15T03:35:04;98.65;;;40.47;;
75218;SDS011;63801;49.414;19.474;2022-11-15T03:37:07;98.22;;;39.60;;
75218;SDS011;63801;49.414;19.474;2022-11-15T03:39:10;106.88;;;42.67;;
75218;SDS011;63801;49.414;19.474;2022-11-15T03:41:17;96.57;;;40.53;;
75218;SDS011;63801;49.414;19.474;2022-11-15T03:43:30;94.75;;;38.97;;
75218;SDS011;63801;49.414;19.474;2022-11-15T03:45:41;171.65;;;46.13;;
75218;SDS011;63801;49.414;19.474;2022-11-15T03:49:56;141.38;;;47.08;;
75218;SDS011;63801;49.414;19.474;2022-11-15T03:52:02;116.35;;;41.22;;
75218;SDS011;63801;49.414;19.474;2022-11-15T03:54:04;155.63;;;43.53;;
75218;SDS011;63801;49.414;19.474;2022-11-15T03:56:05;134.75;;;42.10;;
75218;SDS011;63801;49.414;19.474;2022-11-15T03:58:05;177.27;;;45.20;;
75218;SDS011;63801;49.414;19.474;2022-11-15T04:00:06;210.18;;;48.28;;
75218;SDS011;63801;49.414;19.474;2022-11-15T04:02:07;283.38;;;52.83;;
75218;SDS011;63801;49.414;19.474;2022-11-15T04:04:07;262.02;;;47.00;;
75218;SDS011;63801;49.414;19.474;2022-11-15T04:06:07;239.50;;;46.05;;
75218;SDS011;63801;49.414;19.474;2022-11-15T04:08:08;196.77;;;45.03;;
75218;SDS011;63801;49.414;19.474;2022-11-15T04:10:08;179.68;;;42.97;;
75218;SDS011;63801;49.414;19.474;2022-11-15T04:12:11;206.63;;;45.28;;
75218;SDS011;63801;49.414;19.474;2022-11-15T04:14:11;198.40;;;46.90;;
75218;SDS011;63801;49.414;19.474;2022-11-15T04:16:11;139.75;;;42.67;;
75218;SDS011;63801;49.414;19.474;2022-11-15T04:18:12;158.38;;;39.92;;
75218;SDS011;63801;49.414;19.474;2022-11-15T04:20:28;214.63;;;47.88;;
75218;SDS011;63801;49.414;19.474;2022-11-15T04:22:48;195.02;;;48.03;;
75218;SDS011;63801;49.414;19.474;2022-11-15T04:25:07;242.57;;;51.53;;
75218;SDS011;63801;49.414;19.474;2022-11-15T04:27:07;260.20;;;50.47;;
75218;SDS011;63801;49.414;19.474;2022-11-15T04:29:08;196.32;;;46.60;;
75218;SDS011;63801;49.414;19.474;2022-11-15T04:31:27;319.05;;;50.55;;
75218;SDS011;63801;49.414;19.474;2022-11-15T04:33:28;210.55;;;46.85;;
75218;SDS011;63801;49.414;19.474;2022-11-15T04:35:28;169.27;;;43.50;;
75218;SDS011;63801;49.414;19.474;2022-11-15T04:37:29;154.70;;;43.55;;
75218;SDS011;63801;49.414;19.474;2022-11-15T04:39:29;215.48;;;44.33;;
75218;SDS011;63801;49.414;19.474;2022-11-15T04:41:29;196.18;;;44.97;;
75218;SDS011;63801;49.414;19.474;2022-11-15T04:43:30;234.35;;;46.88;;
75218;SDS011;63801;49.414;19.474;2022-11-15T04:45:30;229.70;;;46.42;;
75218;SDS011;63801;49.414;19.474;2022-11-15T04:47:30;419.35;;;55.47;;
75218;SDS011;63801;49.414;19.474;2022-11-15T04:49:31;171.25;;;39.80;;
75218;SDS011;63801;49.414;19.474;2022-11-15T04:51:31;203.05;;;41.60;;
75218;SDS011;63801;49.414;19.474;2022-11-15T04:53:32;241.43;;;45.10;;
75218;SDS011;63801;49.414;19.474;2022-11-15T04:55:35;234.23;;;46.50;;
75218;SDS011;63801;49.414;19.474;2022-11-15T04:57:35;265.83;;;47.50;;
75218;SDS011;63801;49.414;19.474;2022-11-15T04:59:36;231.65;;;45.20;;
75218;SDS011;63801;49.414;19.474;2022-11-15T05:01:36;161.95;;;40.25;;
75218;SDS011;63801;49.414;19.474;2022-11-15T05:03:37;185.45;;;41.60;;
75218;SDS011;63801;49.414;19.474;2022-11-15T05:05:56;118.03;;;35.75;;
75218;SDS011;63801;49.414;19.474;2022-11-15T05:07:57;115.75;;;35.63;;
75218;SDS011;63801;49.414;19.474;2022-11-15T05:09:58;180.88;;;39.13;;
75218;SDS011;63801;49.414;19.474;2022-11-15T05:11:58;150.00;;;37.95;;
75218;SDS011;63801;49.414;19.474;2022-11-15T05:13:58;198.23;;;39.15;;
75218;SDS011;63801;49.414;19.474;2022-11-15T05:15:58;166.55;;;38.85;;
75218;SDS011;63801;49.414;19.474;2022-11-15T05:17:59;188.20;;;42.97;;
75218;SDS011;63801;49.414;19.474;2022-11-15T05:20:00;148.57;;;39.65;;
75218;SDS011;63801;49.414;19.474;2022-11-15T05:22:00;261.40;;;45.08;;
75218;SDS011;63801;49.414;19.474;2022-11-15T05:24:01;232.50;;;43.67;;
75218;SDS011;63801;49.414;19.474;2022-11-15T05:26:03;150.00;;;42.35;;
75218;SDS011;63801;49.414;19.474;2022-11-15T05:28:04;170.25;;;42.65;;
75218;SDS011;63801;49.414;19.474;2022-11-15T05:30:04;197.40;;;43.13;;
75218;SDS011;63801;49.414;19.474;2022-11-15T05:32:05;182.25;;;40.00;;
75218;SDS011;63801;49.414;19.474;2022-11-15T05:38:31;235.98;;;41.88;;
75218;SDS011;63801;49.414;19.474;2022-11-15T05:40:31;172.07;;;39.00;;
75218;SDS011;63801;49.414;19.474;2022-11-15T05:42:32;254.48;;;42.22;;
75218;SDS011;63801;49.414;19.474;2022-11-15T05:44:33;192.43;;;38.65;;
75218;SDS011;63801;49.414;19.474;2022-11-15T05:46:35;323.15;;;50.10;;
75218;SDS011;63801;49.414;19.474;2022-11-15T05:48:39;301.88;;;46.47;;
75218;SDS011;63801;49.414;19.474;2022-11-15T05:50:43;338.23;;;44.10;;
75218;SDS011;63801;49.414;19.474;2022-11-15T05:52:46;289.92;;;46.75;;
75218;SDS011;63801;49.414;19.474;2022-11-15T05:54:47;358.30;;;47.10;;
75218;SDS011;63801;49.414;19.474;2022-11-15T05:56:49;326.88;;;44.15;;
75218;SDS011;63801;49.414;19.474;2022-11-15T05:58:49;266.65;;;42.92;;
75218;SDS011;63801;49.414;19.474;2022-11-15T06:00:51;299.15;;;44.40;;
75218;SDS011;63801;49.414;19.474;2022-11-15T06:02:51;334.33;;;53.78;;
75218;SDS011;63801;49.414;19.474;2022-11-15T06:04:52;307.48;;;48.53;;
75218;SDS011;63801;49.414;19.474;2022-11-15T06:06:52;291.13;;;47.90;;
75218;SDS011;63801;49.414;19.474;2022-11-15T06:08:52;142.93;;;34.40;;
75218;SDS011;63801;49.414;19.474;2022-11-15T06:10:53;112.03;;;34.17;;
75218;SDS011;63801;49.414;19.474;2022-11-15T06:12:57;124.63;;;33.13;;
75218;SDS011;63801;49.414;19.474;2022-11-15T06:15:01;98.70;;;31.15;;
75218;SDS011;63801;49.414;19.474;2022-11-15T06:17:01;106.00;;;34.25;;
75218;SDS011;63801;49.414;19.474;2022-11-15T06:19:02;186.57;;;43.00;;
75218;SDS011;63801;49.414;19.474;2022-11-15T06:21:03;226.77;;;45.70;;
75218;SDS011;63801;49.414;19.474;2022-11-15T06:23:04;248.82;;;44.05;;
75218;SDS011;63801;49.414;19.474;2022-11-15T06:25:04;605.70;;;98.07;;
75218;SDS011;63801;49.414;19.474;2022-11-15T06:27:05;471.73;;;79.78;;
75218;SDS011;63801;49.414;19.474;2022-11-15T06:29:05;443.15;;;63.40;;
75218;SDS011;63801;49.414;19.474;2022-11-15T06:31:06;533.53;;;70.85;;
75218;SDS011;63801;49.414;19.474;2022-11-15T06:33:11;467.48;;;53.42;;
75218;SDS011;63801;49.414;19.474;2022-11-15T06:35:11;447.60;;;55.70;;
75218;SDS011;63801;49.414;19.474;2022-11-15T06:37:12;359.85;;;48.33;;
75218;SDS011;63801;49.414;19.474;2022-11-15T06:39:12;386.75;;;54.53;;
75218;SDS011;63801;49.414;19.474;2022-11-15T06:41:13;406.85;;;56.17;;
75218;SDS011;63801;49.414;19.474;2022-11-15T06:43:13;347.33;;;50.38;;
75218;SDS011;63801;49.414;19.474;2022-11-15T06:45:14;328.10;;;45.28;;
75218;SDS011;63801;49.414;19.474;2022-11-15T06:47:15;429.33;;;56.22;;
75218;SDS011;63801;49.414;19.474;2022-11-15T06:49:15;444.70;;;61.75;;
75218;SDS011;63801;49.414;19.474;2022-11-15T06:51:16;535.05;;;71.13;;
75218;SDS011;63801;49.414;19.474;2022-11-15T06:53:17;550.35;;;73.03;;
75218;SDS011;63801;49.414;19.474;2022-11-15T06:55:17;571.45;;;73.50;;
75218;SDS011;63801;49.414;19.474;2022-11-15T06:57:18;552.08;;;75.45;;
75218;SDS011;63801;49.414;19.474;2022-11-15T06:59:18;446.35;;;62.90;;
75218;SDS011;63801;49.414;19.474;2022-11-15T07:01:18;564.05;;;74.57;;
75218;SDS011;63801;49.414;19.474;2022-11-15T07:03:19;441.00;;;63.22;;
75218;SDS011;63801;49.414;19.474;2022-11-15T07:05:19;504.92;;;62.65;;
75218;SDS011;63801;49.414;19.474;2022-11-15T07:07:19;482.35;;;61.47;;
75218;SDS011;63801;49.414;19.474;2022-11-15T07:09:19;405.20;;;54.55;;
75218;SDS011;63801;49.414;19.474;2022-11-15T07:11:20;401.77;;;62.72;;
75218;SDS011;63801;49.414;19.474;2022-11-15T07:13:23;474.02;;;60.67;;
75218;SDS011;63801;49.414;19.474;2022-11-15T07:15:25;382.05;;;53.53;;
75218;SDS011;63801;49.414;19.474;2022-11-15T07:17:26;479.35;;;60.65;;
75218;SDS011;63801;49.414;19.474;2022-11-15T07:19:26;333.17;;;53.13;;
75218;SDS011;63801;49.414;19.474;2022-11-15T07:21:26;354.17;;;54.88;;
75218;SDS011;63801;49.414;19.474;2022-11-15T07:23:27;473.98;;;57.35;;
75218;SDS011;63801;49.414;19.474;2022-11-15T07:25:27;400.05;;;54.13;;
75218;SDS011;63801;49.414;19.474;2022-11-15T07:27:27;485.83;;;61.95;;
75218;SDS011;63801;49.414;19.474;2022-11-15T07:29:28;541.85;;;62.20;;
75218;SDS011;63801;49.414;19.474;2022-11-15T07:31:28;635.20;;;71.28;;
75218;SDS011;63801;49.414;19.474;2022-11-15T07:33:28;534.53;;;72.10;;
75218;SDS011;63801;49.414;19.474;2022-11-15T07:35:29;414.60;;;54.65;;
75218;SDS011;63801;49.414;19.474;2022-11-15T07:37:30;470.35;;;61.80;;
75218;SDS011;63801;49.414;19.474;2022-11-15T07:39:30;252.55;;;43.55;;
75218;SDS011;63801;49.414;19.474;2022-11-15T07:41:30;379.45;;;54.30;;
75218;SDS011;63801;49.414;19.474;2022-11-15T07:43:31;282.58;;;45.90;;
75218;SDS011;63801;49.414;19.474;2022-11-15T07:45:33;282.75;;;46.97;;
75218;SDS011;63801;49.414;19.474;2022-11-15T07:47:34;258.98;;;44.67;;
75218;SDS011;63801;49.414;19.474;2022-11-15T07:49:34;221.43;;;44.35;;
75218;SDS011;63801;49.414;19.474;2022-11-15T07:51:35;330.58;;;51.65;;
75218;SDS011;63801;49.414;19.474;2022-11-15T07:53:35;372.20;;;48.15;;
75218;SDS011;63801;49.414;19.474;2022-11-15T07:55:35;406.80;;;50.28;;
75218;SDS011;63801;49.414;19.474;2022-11-15T07:57:36;347.75;;;47.47;;
75218;SDS011;63801;49.414;19.474;2022-11-15T07:59:36;349.63;;;46.78;;
75218;SDS011;63801;49.414;19.474;2022-11-15T08:01:37;406.85;;;49.75;;
75218;SDS011;63801;49.414;19.474;2022-11-15T08:03:37;446.63;;;56.05;;
75218;SDS011;63801;49.414;19.474;2022-11-15T08:05:38;276.95;;;53.65;;
75218;SDS011;63801;49.414;19.474;2022-11-15T08:07:39;425.80;;;71.85;;
75218;SDS011;63801;49.414;19.474;2022-11-15T08:09:40;342.75;;;63.47;;
75218;SDS011;63801;49.414;19.474;2022-11-15T08:11:40;308.85;;;60.40;;
75218;SDS011;63801;49.414;19.474;2022-11-15T08:13:41;427.05;;;69.85;;
75218;SDS011;63801;49.414;19.474;2022-11-15T08:15:41;174.82;;;54.38;;
75218;SDS011;63801;49.414;19.474;2022-11-15T08:17:43;236.43;;;62.63;;
75218;SDS011;63801;49.414;19.474;2022-11-15T08:19:43;251.98;;;60.58;;
75218;SDS011;63801;49.414;19.474;2022-11-15T08:21:44;167.43;;;49.42;;
75218;SDS011;63801;49.414;19.474;2022-11-15T08:23:44;137.50;;;42.97;;
75218;SDS011;63801;49.414;19.474;2022-11-15T08:25:44;210.13;;;49.88;;
75218;SDS011;63801;49.414;19.474;2022-11-15T08:27:45;143.18;;;44.45;;
75218;SDS011;63801;49.414;19.474;2022-11-15T08:29:45;116.28;;;44.08;;
75218;SDS011;63801;49.414;19.474;2022-11-15T08:31:47;101.68;;;39.50;;
75218;SDS011;63801;49.414;19.474;2022-11-15T08:33:47;89.13;;;39.00;;
75218;SDS011;63801;49.414;19.474;2022-11-15T08:35:47;107.25;;;43.60;;
75218;SDS011;63801;49.414;19.474;2022-11-15T08:37:48;140.38;;;50.58;;
75218;SDS011;63801;49.414;19.474;2022-11-15T08:39:48;129.73;;;49.67;;
75218;SDS011;63801;49.414;19.474;2022-11-15T08:41:49;137.55;;;50.78;;
75218;SDS011;63801;49.414;19.474;2022-11-15T08:43:49;224.05;;;70.13;;
75218;SDS011;63801;49.414;19.474;2022-11-15T08:45:49;175.10;;;57.33;;
75218;SDS011;63801;49.414;19.474;2022-11-15T08:47:50;156.20;;;54.22;;
75218;SDS011;63801;49.414;19.474;2022-11-15T08:49:50;162.10;;;59.10;;
75218;SDS011;63801;49.414;19.474;2022-11-15T08:51:50;229.48;;;74.85;;
75218;SDS011;63801;49.414;19.474;2022-11-15T08:53:51;242.25;;;82.72;;
75218;SDS011;63801;49.414;19.474;2022-11-15T08:55:51;224.68;;;77.93;;
75218;SDS011;63801;49.414;19.474;2022-11-15T08:57:51;227.98;;;87.53;;
75218;SDS011;63801;49.414;19.474;2022-11-15T08:59:52;299.27;;;111.15;;
75218;SDS011;63801;49.414;19.474;2022-11-15T09:01:52;311.23;;;111.90;;
75218;SDS011;63801;49.414;19.474;2022-11-15T09:03:52;244.45;;;82.68;;
75218;SDS011;63801;49.414;19.474;2022-11-15T09:05:57;254.52;;;79.88;;
75218;SDS011;63801;49.414;19.474;2022-11-15T09:07:58;247.48;;;81.05;;
75218;SDS011;63801;49.414;19.474;2022-11-15T09:09:58;265.35;;;78.75;;
75218;SDS011;63801;49.414;19.474;2022-11-15T09:11:59;260.40;;;79.15;;
75218;SDS011;63801;49.414;19.474;2022-11-15T09:13:59;246.15;;;78.65;;
75218;SDS011;63801;49.414;19.474;2022-11-15T09:16:00;236.48;;;75.50;;
75218;SDS011;63801;49.414;19.474;2022-11-15T09:18:01;247.85;;;75.07;;
75218;SDS011;63801;49.414;19.474;2022-11-15T09:20:01;217.18;;;67.55;;
75218;SDS011;63801;49.414;19.474;2022-11-15T09:22:04;228.45;;;68.28;;
75218;SDS011;63801;49.414;19.474;2022-11-15T09:24:06;178.07;;;59.90;;
75218;SDS011;63801;49.414;19.474;2022-11-15T09:26:06;170.52;;;57.35;;
75218;SDS011;63801;49.414;19.474;2022-11-15T09:28:07;179.55;;;59.25;;
75218;SDS011;63801;49.414;19.474;2022-11-15T09:30:08;152.07;;;55.83;;
75218;SDS011;63801;49.414;19.474;2022-11-15T09:32:08;158.07;;;58.47;;
75218;SDS011;63801;49.414;19.474;2022-11-15T09:34:09;159.95;;;55.92;;
75218;SDS011;63801;49.414;19.474;2022-11-15T09:36:09;139.10;;;54.70;;
75218;SDS011;63801;49.414;19.474;2022-11-15T09:38:10;132.45;;;51.53;;
75218;SDS011;63801;49.414;19.474;2022-11-15T09:40:11;125.10;;;49.17;;
75218;SDS011;63801;49.414;19.474;2022-11-15T09:44:52;109.00;;;44.97;;
75218;SDS011;63801;49.414;19.474;2022-11-15T09:49:08;114.05;;;44.10;;
75218;SDS011;63801;49.414;19.474;2022-11-15T09:51:30;90.90;;;41.05;;
75218;SDS011;63801;49.414;19.474;2022-11-15T09:53:38;83.80;;;36.45;;
75218;SDS011;63801;49.414;19.474;2022-11-15T09:55:54;60.42;;;31.05;;
75218;SDS011;63801;49.414;19.474;2022-11-15T09:58:21;62.45;;;30.17;;
75218;SDS011;63801;49.414;19.474;2022-11-15T10:00:40;94.72;;;43.03;;
75218;SDS011;63801;49.414;19.474;2022-11-15T10:02:58;95.90;;;42.65;;
75218;SDS011;63801;49.414;19.474;2022-11-15T10:05:14;88.10;;;40.28;;
75218;SDS011;63801;49.414;19.474;2022-11-15T10:09:47;143.00;;;59.85;;
75218;SDS011;63801;49.414;19.474;2022-11-15T10:11:52;195.45;;;78.78;;
75218;SDS011;63801;49.414;19.474;2022-11-15T10:13:55;180.07;;;77.43;;
75218;SDS011;63801;49.414;19.474;2022-11-15T10:18:42;164.10;;;69.90;;
75218;SDS011;63801;49.414;19.474;2022-11-15T10:20:59;164.35;;;76.07;;
75218;SDS011;63801;49.414;19.474;2022-11-15T10:23:14;202.10;;;86.35;;
75218;SDS011;63801;49.414;19.474;2022-11-15T10:27:18;186.45;;;82.70;;
75218;SDS011;63801;49.414;19.474;2022-11-15T10:29:19;195.68;;;78.57;;
75218;SDS011;63801;49.414;19.474;2022-11-15T10:31:24;152.23;;;64.88;;
75218;SDS011;63801;49.414;19.474;2022-11-15T10:35:35;96.10;;;42.53;;
75218;SDS011;63801;49.414;19.474;2022-11-15T10:37:35;82.75;;;39.00;;
75218;SDS011;63801;49.414;19.474;2022-11-15T10:39:35;81.93;;;38.33;;
75218;SDS011;63801;49.414;19.474;2022-11-15T10:41:37;73.63;;;37.65;;
75218;SDS011;63801;49.414;19.474;2022-11-15T10:43:39;63.17;;;33.67;;
75218;SDS011;63801;49.414;19.474;2022-11-15T10:45:39;67.32;;;33.25;;
75218;SDS011;63801;49.414;19.474;2022-11-15T10:47:39;61.38;;;33.78;;
75218;SDS011;63801;49.414;19.474;2022-11-15T10:49:52;63.67;;;33.85;;
75218;SDS011;63801;49.414;19.474;2022-11-15T10:51:56;62.88;;;32.08;;
75218;SDS011;63801;49.414;19.474;2022-11-15T10:53:59;56.85;;;30.58;;
75218;SDS011;63801;49.414;19.474;2022-11-15T10:56:04;55.50;;;30.08;;
75218;SDS011;63801;49.414;19.474;2022-11-15T11:00:29;51.53;;;28.58;;
75218;SDS011;63801;49.414;19.474;2022-11-15T11:02:34;56.33;;;30.05;;
75218;SDS011;63801;49.414;19.474;2022-11-15T11:04:51;52.38;;;28.73;;
75218;SDS011;63801;49.414;19.474;2022-11-15T11:06:53;51.92;;;28.65;;
75218;SDS011;63801;49.414;19.474;2022-11-15T11:08:55;52.90;;;29.90;;
75218;SDS011;63801;49.414;19.474;2022-11-15T11:10:58;67.88;;;30.15;;
75218;SDS011;63801;49.414;19.474;2022-11-15T11:15:25;101.30;;;35.65;;
75218;SDS011;63801;49.414;19.474;2022-11-15T11:17:32;60.28;;;32.03;;
75218;SDS011;63801;49.414;19.474;2022-11-15T11:26:44;88.47;;;43.22;;
75218;SDS011;63801;49.414;19.474;2022-11-15T11:31:19;119.95;;;55.05;;
75218;SDS011;63801;49.414;19.474;2022-11-15T11:33:36;125.28;;;56.35;;
75218;SDS011;63801;49.414;19.474;2022-11-15T11:47:24;133.80;;;58.78;;
75218;SDS011;63801;49.414;19.474;2022-11-15T11:51:38;157.05;;;68.93;;
75218;SDS011;63801;49.414;19.474;2022-11-15T11:53:47;139.55;;;60.80;;
75218;SDS011;63801;49.414;19.474;2022-11-15T11:55:54;162.57;;;64.60;;
75218;SDS011;63801;49.414;19.474;2022-11-15T12:00:24;130.85;;;61.72;;
75218;SDS011;63801;49.414;19.474;2022-11-15T12:02:29;126.88;;;60.47;;
75218;SDS011;63801;49.414;19.474;2022-11-15T12:04:38;136.52;;;61.47;;
75218;SDS011;63801;49.414;19.474;2022-11-15T12:11:26;134.93;;;64.47;;
75218;SDS011;63801;49.414;19.474;2022-11-15T12:13:53;141.45;;;65.85;;
75218;SDS011;63801;49.414;19.474;2022-11-15T12:16:22;132.77;;;62.28;;
75218;SDS011;63801;49.414;19.474;2022-11-15T12:18:23;213.88;;;109.18;;
75218;SDS011;63801;49.414;19.474;2022-11-15T12:20:24;132.32;;;63.72;;
75218;SDS011;63801;49.414;19.474;2022-11-15T12:29:35;126.65;;;59.65;;
75218;SDS011;63801;49.414;19.474;2022-11-15T12:31:49;125.38;;;56.88;;
75218;SDS011;63801;49.414;19.474;2022-11-15T12:33:56;112.28;;;53.20;;
75218;SDS011;63801;49.414;19.474;2022-11-15T12:36:02;112.80;;;53.53;;
75218;SDS011;63801;49.414;19.474;2022-11-15T12:38:08;113.60;;;54.42;;
75218;SDS011;63801;49.414;19.474;2022-11-15T12:55:32;107.47;;;49.92;;
75218;SDS011;63801;49.414;19.474;2022-11-15T12:57:34;97.57;;;47.55;;
75218;SDS011;63801;49.414;19.474;2022-11-15T13:01:58;51.90;;;25.52;;
75218;SDS011;63801;49.414;19.474;2022-11-15T13:06:41;161.40;;;79.43;;
75218;SDS011;63801;49.414;19.474;2022-11-15T13:08:47;196.85;;;98.40;;
75218;SDS011;63801;49.414;19.474;2022-11-15T13:10:49;283.08;;;134.20;;
75218;SDS011;63801;49.414;19.474;2022-11-15T13:12:50;194.48;;;93.03;;
75218;SDS011;63801;49.414;19.474;2022-11-15T13:14:54;140.85;;;62.58;;
75218;SDS011;63801;49.414;19.474;2022-11-15T13:16:59;138.23;;;62.78;;
75218;SDS011;63801;49.414;19.474;2022-11-15T13:18:59;143.73;;;64.75;;
75218;SDS011;63801;49.414;19.474;2022-11-15T13:21:03;165.18;;;75.82;;
75218;SDS011;63801;49.414;19.474;2022-11-15T13:23:24;173.07;;;80.60;;
75218;SDS011;63801;49.414;19.474;2022-11-15T13:30:25;150.77;;;66.70;;
75218;SDS011;63801;49.414;19.474;2022-11-15T13:32:27;127.25;;;55.55;;
75218;SDS011;63801;49.414;19.474;2022-11-15T13:34:28;141.32;;;62.28;;
75218;SDS011;63801;49.414;19.474;2022-11-15T13:36:33;126.18;;;55.03;;
75218;SDS011;63801;49.414;19.474;2022-11-15T13:38:35;92.82;;;43.13;;
75218;SDS011;63801;49.414;19.474;2022-11-15T13:40:37;118.20;;;47.33;;